createdAt,value
2022-08-31T00:00:56.343Z,21.36
2022-08-31T00:06:02.586Z,20.43
2022-08-31T00:11:04.382Z,19.36
2022-08-31T00:16:10.723Z,18.81
2022-08-31T00:21:12.629Z,18.85
2022-08-31T00:26:15.532Z,18.88
2022-08-31T00:31:17.910Z,18.86
2022-08-31T00:36:23.307Z,19.06
2022-08-31T00:41:28.031Z,19.23
2022-08-31T00:46:32.957Z,18.94
2022-08-31T00:51:40.787Z,18.93
2022-08-31T00:56:43.083Z,18.81
2022-08-31T01:01:45.256Z,18.76
2022-08-31T01:06:49.095Z,18.83
2022-08-31T01:11:51.150Z,18.80
2022-08-31T01:16:55.168Z,18.61
2022-08-31T01:22:04.611Z,18.44
2022-08-31T01:27:07.414Z,18.63
2022-08-31T01:32:09.218Z,18.47
2022-08-31T01:37:12.023Z,18.51
2022-08-31T01:42:15.195Z,18.55
2022-08-31T01:47:17.119Z,18.34
2022-08-31T01:52:18.820Z,18.15
2022-08-31T01:57:21.770Z,18.07
2022-08-31T02:02:50.094Z,18.24
2022-08-31T02:07:52.153Z,18.30
2022-08-31T02:12:54.092Z,18.14
2022-08-31T02:18:04.187Z,18.01
2022-08-31T02:23:06.306Z,18.05
2022-08-31T02:28:09.080Z,18.23
2022-08-31T02:33:11.461Z,18.26
2022-08-31T02:38:13.434Z,18.28
2022-08-31T02:43:17.536Z,18.25
2022-08-31T02:48:28.623Z,18.29
2022-08-31T02:53:30.275Z,18.40
2022-08-31T02:58:31.961Z,18.42
2022-08-31T03:03:35.507Z,18.35
2022-08-31T03:08:37.163Z,18.24
2022-08-31T03:13:39.846Z,18.25
2022-08-31T03:18:41.914Z,18.28
2022-08-31T03:23:44.056Z,18.31
2022-08-31T03:28:46.484Z,18.23
2022-08-31T03:34:26.408Z,18.25
2022-08-31T03:39:28.310Z,18.28
2022-08-31T03:44:30.073Z,18.39
2022-08-31T03:49:31.896Z,18.19
2022-08-31T03:54:43.463Z,18.18
2022-08-31T03:59:45.189Z,18.15
2022-08-31T04:04:54.158Z,18.17
2022-08-31T04:10:15.051Z,18.19
2022-08-31T04:15:39.232Z,18.16
2022-08-31T04:20:59.730Z,18.25
2022-08-31T04:26:01.531Z,18.36
2022-08-31T04:31:06.238Z,18.36
2022-08-31T04:36:10.024Z,18.39
2022-08-31T04:41:13.947Z,18.35
2022-08-31T04:46:17.724Z,18.36
2022-08-31T04:51:23.596Z,18.35
2022-08-31T04:56:28.750Z,18.38
2022-08-31T05:01:42.766Z,18.59
2022-08-31T05:07:20.317Z,18.52
2022-08-31T05:12:22.855Z,18.47
2022-08-31T05:17:24.552Z,18.58
2022-08-31T05:22:29.415Z,18.48
2022-08-31T05:27:32.100Z,18.53
2022-08-31T05:32:35.131Z,18.60
2022-08-31T05:37:40.399Z,18.67
2022-08-31T05:42:43.085Z,18.83
2022-08-31T05:47:44.762Z,18.92
2022-08-31T05:52:46.813Z,18.90
2022-08-31T05:57:48.928Z,18.91
2022-08-31T06:02:53.799Z,19.08
2022-08-31T06:07:56.059Z,19.14
2022-08-31T06:12:58.579Z,19.13
2022-08-31T06:18:00.334Z,19.28
2022-08-31T06:23:02.905Z,19.15
2022-08-31T06:28:16.156Z,19.57
2022-08-31T06:33:18.241Z,19.78
2022-08-31T06:38:32.869Z,19.54
2022-08-31T06:44:06.282Z,19.49
2022-08-31T06:49:30.129Z,19.79
2022-08-31T06:54:32.392Z,20.15
2022-08-31T06:59:53.857Z,20.88
2022-08-31T07:05:08.999Z,20.94
2022-08-31T07:10:12.660Z,20.93
2022-08-31T07:15:15.345Z,20.55
2022-08-31T07:20:17.329Z,20.68
2022-08-31T07:25:20.004Z,20.70
2022-08-31T07:30:24.171Z,20.49
2022-08-31T07:35:25.932Z,20.60
2022-08-31T07:40:50.469Z,20.70
2022-08-31T07:45:53.773Z,20.68
2022-08-31T07:50:59.318Z,20.64
2022-08-31T07:56:17.548Z,20.94
2022-08-31T08:01:20.363Z,20.70
2022-08-31T08:06:22.362Z,20.94
2022-08-31T08:11:45.272Z,21.30
2022-08-31T08:17:03.558Z,21.30
2022-08-31T08:22:11.198Z,21.26
2022-08-31T08:27:32.027Z,21.43
2022-08-31T08:32:45.497Z,21.39
2022-08-31T08:37:58.589Z,21.55
2022-08-31T08:43:03.977Z,22.93
2022-08-31T08:48:06.125Z,23.19
2022-08-31T08:53:11.405Z,24.26
2022-08-31T08:58:19.992Z,23.43
2022-08-31T09:03:36.382Z,23.71
2022-08-31T09:09:24.521Z,23.17
2022-08-31T09:14:48.488Z,23.42
2022-08-31T09:19:51.248Z,23.23
2022-08-31T09:24:53.345Z,22.82
2022-08-31T09:30:32.757Z,22.64
2022-08-31T09:35:37.519Z,22.99
2022-08-31T09:40:41.699Z,23.68
2022-08-31T09:46:05.623Z,24.06
2022-08-31T09:51:07.410Z,25.55
2022-08-31T09:56:10.802Z,25.55
2022-08-31T10:01:17.908Z,26.50
2022-08-31T10:06:40.024Z,26.00
2022-08-31T10:11:45.165Z,24.52
2022-08-31T10:16:53.071Z,26.46
2022-08-31T10:21:59.508Z,26.49
2022-08-31T10:27:15.120Z,25.27
2022-08-31T10:32:38.661Z,26.12
2022-08-31T10:37:48.054Z,25.66
2022-08-31T10:43:14.068Z,27.06
2022-08-31T10:48:18.330Z,25.63
2022-08-31T10:53:40.316Z,26.57
2022-08-31T10:59:02.348Z,28.73
2022-08-31T11:04:22.070Z,29.86
2022-08-31T11:09:29.022Z,28.74
2022-08-31T11:14:51.833Z,26.57
2022-08-31T11:19:59.284Z,27.26
2022-08-31T11:25:09.201Z,28.11
2022-08-31T11:30:29.686Z,26.00
2022-08-31T11:36:06.716Z,25.74
2022-08-31T11:41:09.741Z,26.65
2022-08-31T11:46:23.320Z,26.83
2022-08-31T11:51:57.648Z,27.50
2022-08-31T11:56:59.436Z,28.26
2022-08-31T12:02:19.398Z,29.02
2022-08-31T12:07:31.616Z,27.56
2022-08-31T12:12:48.196Z,27.29
2022-08-31T12:17:55.579Z,26.79
2022-08-31T12:23:30.088Z,26.83
2022-08-31T12:28:51.723Z,27.23
2022-08-31T12:34:05.426Z,28.49
2022-08-31T12:39:28.351Z,27.71
2022-08-31T12:44:36.979Z,27.42
2022-08-31T12:49:39.599Z,27.39
2022-08-31T12:54:59.393Z,27.23
2022-08-31T13:00:13.114Z,27.54
2022-08-31T13:05:21.261Z,27.09
2022-08-31T13:10:34.804Z,28.64
2022-08-31T13:15:43.067Z,28.73
2022-08-31T13:20:45.399Z,27.97
2022-08-31T13:26:15.296Z,27.60
2022-08-31T13:31:26.740Z,29.60
2022-08-31T13:36:31.922Z,27.62
2022-08-31T13:41:37.796Z,30.39
2022-08-31T13:46:44.119Z,30.39
2022-08-31T13:51:46.825Z,29.10
2022-08-31T13:56:48.553Z,30.62
2022-08-31T14:02:26.959Z,30.96
2022-08-31T14:07:35.400Z,29.43
2022-08-31T14:12:48.576Z,28.90
2022-08-31T14:23:18.949Z,26.76
2022-08-31T14:28:21.850Z,26.67
2022-08-31T14:33:23.856Z,26.32
2022-08-31T14:38:25.441Z,26.35
2022-08-31T14:43:27.266Z,26.32
2022-08-31T14:48:28.976Z,26.31
2022-08-31T14:53:30.640Z,26.61
2022-08-31T14:58:32.452Z,26.79
2022-08-31T15:03:34.799Z,26.41
2022-08-31T15:08:38.713Z,26.60
2022-08-31T15:13:40.627Z,26.61
2022-08-31T15:18:42.441Z,26.57
2022-08-31T15:23:44.005Z,26.85
2022-08-31T15:28:45.806Z,26.95
2022-08-31T15:33:47.898Z,27.03
2022-08-31T15:38:50.236Z,26.67
2022-08-31T15:43:55.389Z,26.63
2022-08-31T15:48:57.149Z,26.60
2022-08-31T15:54:20.850Z,26.67
2022-08-31T15:59:22.549Z,26.52
2022-08-31T16:04:24.393Z,26.62
2022-08-31T16:09:27.240Z,26.51
2022-08-31T16:14:29.209Z,26.56
2022-08-31T16:19:35.402Z,26.64
2022-08-31T16:24:38.065Z,26.80
2022-08-31T16:29:41.052Z,26.87
2022-08-31T16:34:42.853Z,28.13
2022-08-31T16:39:45.218Z,28.80
2022-08-31T16:44:48.024Z,29.10
2022-08-31T16:49:50.045Z,29.15
2022-08-31T16:54:52.726Z,29.24
2022-08-31T16:59:56.149Z,29.04
2022-08-31T17:04:57.751Z,29.43
2022-08-31T17:09:59.851Z,29.10
2022-08-31T17:15:02.367Z,29.21
2022-08-31T17:20:05.090Z,28.85
2022-08-31T17:25:07.370Z,28.01
2022-08-31T17:30:09.603Z,27.13
2022-08-31T17:35:11.411Z,26.59
2022-08-31T17:40:13.138Z,26.32
2022-08-31T17:45:14.941Z,26.04
2022-08-31T17:50:16.818Z,25.76
2022-08-31T17:55:18.583Z,25.24
2022-08-31T18:00:20.552Z,24.83
2022-08-31T18:05:22.510Z,24.64
2022-08-31T18:10:24.332Z,24.51
2022-08-31T18:15:26.141Z,24.52
2022-08-31T18:20:27.742Z,24.36
2022-08-31T18:25:35.986Z,24.47
2022-08-31T18:30:39.181Z,24.24
2022-08-31T18:35:46.967Z,24.14
2022-08-31T18:40:49.048Z,23.82
2022-08-31T18:45:51.568Z,23.41
2022-08-31T18:50:54.052Z,23.00
2022-08-31T18:55:55.794Z,22.67
2022-08-31T19:00:58.751Z,22.68
2022-08-31T19:06:05.174Z,22.91
2022-08-31T19:11:08.437Z,23.05
2022-08-31T19:16:20.433Z,23.19
2022-08-31T19:21:28.565Z,23.26
2022-08-31T19:26:37.824Z,23.34
2022-08-31T19:31:41.996Z,23.44
2022-08-31T19:36:45.368Z,23.50
2022-08-31T19:41:51.904Z,23.41
2022-08-31T19:46:55.704Z,23.29
2022-08-31T19:52:00.502Z,23.32
2022-08-31T19:57:02.437Z,23.14
2022-08-31T20:02:05.654Z,23.08
2022-08-31T20:07:08.208Z,22.92
2022-08-31T20:12:11.027Z,22.59
2022-08-31T20:17:12.776Z,22.50
2022-08-31T20:22:14.535Z,22.44
2022-08-31T20:27:16.465Z,22.44
2022-08-31T20:32:20.699Z,22.32
2022-08-31T20:37:22.463Z,22.39
2022-08-31T20:42:24.714Z,22.45
2022-08-31T20:47:26.439Z,22.38
2022-08-31T20:52:31.680Z,22.28
2022-08-31T20:57:35.917Z,22.15
2022-08-31T21:02:38.082Z,22.08
2022-08-31T21:07:40.656Z,22.09
2022-08-31T21:12:42.695Z,22.00
2022-08-31T21:17:44.895Z,22.09
2022-08-31T21:22:47.159Z,22.07
2022-08-31T21:27:48.839Z,22.08
2022-08-31T21:32:50.470Z,21.97
2022-08-31T21:37:52.151Z,21.92
2022-08-31T21:42:53.963Z,21.76
2022-08-31T21:47:55.674Z,21.66
2022-08-31T21:53:00.398Z,21.69
2022-08-31T21:58:02.324Z,21.74
2022-08-31T22:03:03.956Z,21.71
2022-08-31T22:08:05.561Z,21.66
2022-08-31T22:13:08.775Z,21.54
2022-08-31T22:18:58.217Z,21.60
2022-08-31T22:23:33.486Z,21.45
2022-08-31T22:28:35.595Z,21.24
2022-08-31T22:33:38.098Z,21.04
2022-08-31T22:38:43.620Z,20.93
2022-08-31T22:43:46.373Z,20.83
2022-08-31T22:48:48.014Z,20.69
2022-08-31T22:53:50.604Z,20.53
2022-08-31T22:58:54.409Z,20.23
2022-08-31T23:03:58.939Z,20.00
2022-08-31T23:09:02.171Z,19.69
2022-08-31T23:14:07.446Z,19.42
2022-08-31T23:19:15.581Z,19.14
2022-08-31T23:24:29.419Z,18.83
2022-08-31T23:29:33.578Z,18.57
2022-08-31T23:34:35.337Z,18.24
2022-08-31T23:39:41.540Z,18.14
2022-08-31T23:44:44.963Z,18.56
2022-08-31T23:49:47.624Z,19.03
2022-08-31T23:54:52.713Z,18.80
